Time,TemperatureF,DewpointF,PressureIn,WindDirection,WindDirectionDegrees,WindSpeedMPH,WindSpeedGustMPH,Humidity,HourlyPrecipIn,Conditions,Clouds,dailyrainin,SoftwareType,DateUTC
2013-09-26 00:02:00,44.3,43.2,29.75,SE,138,0.0,0.0,96,0.00,,,0.00,Wunderground v.1.15,2013-09-26 04:02:00,
2013-09-26 00:07:00,44.1,43.0,29.75,SE,138,0.0,0.0,96,0.00,,,0.00,Wunderground v.1.15,2013-09-26 04:07:00,
2013-09-26 00:12:00,44.0,42.9,29.75,SE,138,0.0,0.0,96,0.00,,,0.00,Wunderground v.1.15,2013-09-26 04:12:00,
2013-09-26 00:17:00,44.0,42.9,29.75,SE,138,0.0,0.0,96,0.00,,,0.00,Wunderground v.1.15,2013-09-26 04:17:00,
2013-09-26 00:27:00,44.2,43.1,29.75,SE,138,0.0,0.0,96,0.00,,,0.00,Wunderground v.1.15,2013-09-26 04:27:00,
2013-09-26 00:32:00,44.3,43.5,29.75,SE,138,0.0,0.0,97,0.00,,,0.00,Wunderground v.1.15,2013-09-26 04:32:00,
2013-09-26 00:42:00,44.5,43.7,29.75,SE,138,0.0,0.0,97,0.00,,,0.00,Wunderground v.1.15,2013-09-26 04:42:00,
2013-09-26 00:47:00,44.7,43.9,29.75,SE,138,0.0,0.0,97,0.00,,,0.00,Wunderground v.1.15,2013-09-26 04:47:00,
2013-09-26 00:57:00,44.9,44.1,29.75,SE,138,0.0,0.0,97,0.00,,,0.00,Wunderground v.1.15,2013-09-26 04:57:00,
2013-09-26 01:02:00,44.9,44.1,29.75,SE,138,0.0,0.0,97,0.00,,,0.00,Wunderground v.1.15,2013-09-26 05:02:00,
2013-09-26 01:07:00,44.9,44.1,29.75,SE,138,0.0,0.0,97,0.00,,,0.00,Wunderground v.1.15,2013-09-26 05:07:00,
2013-09-26 01:17:00,44.7,43.9,29.75,SE,138,0.0,1.0,97,0.00,,,0.00,Wunderground v.1.15,2013-09-26 05:17:00,
2013-09-26 01:22:00,44.5,43.7,29.75,SE,138,1.0,1.0,97,0.00,,,0.00,Wunderground v.1.15,2013-09-26 05:22:00,
2013-09-26 01:32:00,44.3,43.5,29.75,SE,138,0.0,0.0,97,0.00,,,0.00,Wunderground v.1.15,2013-09-26 05:32:00,
2013-09-26 01:42:00,44.1,43.3,29.75,SE,138,0.0,0.0,97,0.00,,,0.00,Wunderground v.1.15,2013-09-26 05:42:00,
2013-09-26 01:47:00,44.0,43.2,29.75,SE,138,0.0,0.0,97,0.00,,,0.00,Wunderground v.1.15,2013-09-26 05:47:00,
2013-09-26 01:52:00,44.0,43.2,29.75,SE,138,0.0,0.0,97,0.00,,,0.00,Wunderground v.1.15,2013-09-26 05:52:00,
2013-09-26 02:02:00,44.0,43.2,29.75,SE,138,0.0,1.0,97,0.00,,,0.00,Wunderground v.1.15,2013-09-26 06:02:00,
2013-09-26 02:07:00,43.9,43.1,29.76,SE,138,0.0,1.0,97,0.00,,,0.00,Wunderground v.1.15,2013-09-26 06:07:00,
2013-09-26 02:17:00,43.9,43.1,29.76,SE,138,0.0,0.0,97,0.00,,,0.00,Wunderground v.1.15,2013-09-26 06:17:00,
2013-09-26 02:22:00,43.9,43.1,29.75,SE,138,0.0,0.0,97,0.00,,,0.00,Wunderground v.1.15,2013-09-26 06:22:00,
2013-09-26 02:32:00,43.8,43.0,29.76,SE,138,0.0,0.0,97,0.00,,,0.00,Wunderground v.1.15,2013-09-26 06:32:00,
2013-09-26 02:37:00,43.8,43.0,29.76,SE,138,0.0,0.0,97,0.00,,,0.00,Wunderground v.1.15,2013-09-26 06:37:00,
2013-09-26 02:47:00,43.8,43.0,29.76,SE,138,0.0,0.0,97,0.00,,,0.00,Wunderground v.1.15,2013-09-26 06:47:00,
2013-09-26 02:52:00,43.7,42.9,29.76,SE,138,0.0,0.0,97,0.00,,,0.00,Wunderground v.1.15,2013-09-26 06:52:00,
2013-09-26 03:02:00,43.6,42.8,29.76,SE,138,0.0,0.0,97,0.00,,,0.00,Wunderground v.1.15,2013-09-26 07:02:00,
2013-09-26 03:07:00,43.6,42.8,29.76,SE,138,0.0,0.0,97,0.00,,,0.00,Wunderground v.1.15,2013-09-26 07:07:00,
2013-09-26 03:17:00,43.3,42.5,29.76,SE,138,0.0,0.0,97,0.00,,,0.00,Wunderground v.1.15,2013-09-26 07:17:00,
2013-09-26 03:22:00,43.0,42.2,29.76,SE,138,0.0,0.0,97,0.00,,,0.00,Wunderground v.1.15,2013-09-26 07:22:00,
2013-09-26 03:32:00,42.8,42.0,29.76,SE,138,0.0,0.0,97,0.00,,,0.00,Wunderground v.1.15,2013-09-26 07:32:00,
2013-09-26 03:37:00,42.7,41.9,29.76,SE,138,0.0,0.0,97,0.00,,,0.00,Wunderground v.1.15,2013-09-26 07:37:00,
2013-09-26 03:47:00,42.4,41.6,29.76,SE,138,0.0,0.0,97,0.00,,,0.00,Wunderground v.1.15,2013-09-26 07:47:00,
2013-09-26 03:52:00,42.2,41.4,29.76,SE,138,0.0,0.0,97,0.00,,,0.00,Wunderground v.1.15,2013-09-26 07:52:00,
2013-09-26 04:02:00,42.3,41.5,29.76,SE,138,0.0,0.0,97,0.00,,,0.00,Wunderground v.1.15,2013-09-26 08:02:00,
2013-09-26 04:07:00,42.5,41.7,29.76,SE,138,0.0,0.0,97,0.00,,,0.00,Wunderground v.1.15,2013-09-26 08:07:00,
2013-09-26 04:17:00,42.8,42.3,29.76,SE,138,0.0,0.0,98,0.00,,,0.00,Wunderground v.1.15,2013-09-26 08:17:00,
2013-09-26 04:22:00,42.8,42.3,29.76,SE,138,0.0,0.0,98,0.00,,,0.00,Wunderground v.1.15,2013-09-26 08:22:00,
2013-09-26 04:32:00,42.7,41.9,29.76,SE,138,0.0,0.0,97,0.00,,,0.01,Wunderground v.1.15,2013-09-26 08:32:00,
2013-09-26 04:37:00,42.4,41.6,29.76,SE,138,0.0,0.0,97,0.00,,,0.01,Wunderground v.1.15,2013-09-26 08:37:00,
2013-09-26 04:42:00,42.3,41.5,29.76,SE,138,0.0,0.0,97,0.00,,,0.01,Wunderground v.1.15,2013-09-26 08:42:00,
2013-09-26 04:52:00,42.3,41.8,29.77,SE,138,0.0,0.0,98,0.00,,,0.01,Wunderground v.1.15,2013-09-26 08:52:00,
2013-09-26 05:02:00,42.3,41.8,29.77,SE,138,0.0,0.0,98,0.00,,,0.01,Wunderground v.1.15,2013-09-26 09:02:00,
2013-09-26 05:07:00,42.3,41.8,29.77,SE,138,0.0,0.0,98,0.00,,,0.01,Wunderground v.1.15,2013-09-26 09:07:00,
2013-09-26 05:17:00,42.2,41.7,29.77,SE,138,0.0,0.0,98,0.00,,,0.01,Wunderground v.1.15,2013-09-26 09:17:00,
2013-09-26 05:22:00,42.2,41.7,29.77,SE,138,0.0,0.0,98,0.00,,,0.01,Wunderground v.1.15,2013-09-26 09:22:00,
2013-09-26 05:27:00,42.2,41.7,29.77,SE,138,0.0,0.0,98,0.00,,,0.01,Wunderground v.1.15,2013-09-26 09:27:00,
2013-09-26 05:37:00,42.2,41.7,29.77,SE,138,0.0,0.0,98,0.00,,,0.01,Wunderground v.1.15,2013-09-26 09:37:00,
2013-09-26 05:42:00,42.2,41.7,29.77,SE,138,0.0,0.0,98,0.00,,,0.01,Wunderground v.1.15,2013-09-26 09:42:00,
2013-09-26 05:52:00,41.9,41.4,29.77,SE,138,0.0,0.0,98,0.00,,,0.01,Wunderground v.1.15,2013-09-26 09:52:00,
2013-09-26 05:57:00,41.8,41.3,29.77,SE,138,0.0,0.0,98,0.00,,,0.01,Wunderground v.1.15,2013-09-26 09:57:00,
2013-09-26 06:02:00,41.6,41.1,29.78,SE,138,0.0,0.0,98,0.00,,,0.01,Wunderground v.1.15,2013-09-26 10:02:00,
2013-09-26 06:07:00,41.4,40.6,29.78,SE,138,0.0,0.0,97,0.00,,,0.01,Wunderground v.1.15,2013-09-26 10:07:00,
2013-09-26 06:17:00,41.3,40.5,29.78,SE,138,0.0,0.0,97,0.00,,,0.01,Wunderground v.1.15,2013-09-26 10:17:00,
2013-09-26 06:27:00,41.4,40.9,29.79,SE,138,0.0,0.0,98,0.00,,,0.01,Wunderground v.1.15,2013-09-26 10:27:00,
2013-09-26 06:32:00,41.4,40.9,29.79,SE,138,0.0,0.0,98,0.00,,,0.01,Wunderground v.1.15,2013-09-26 10:32:00,
2013-09-26 06:42:00,41.2,40.7,29.79,SE,138,0.0,0.0,98,0.00,,,0.01,Wunderground v.1.15,2013-09-26 10:42:00,
2013-09-26 06:47:00,41.1,40.6,29.79,SE,138,0.0,0.0,98,0.00,,,0.01,Wunderground v.1.15,2013-09-26 10:47:00,
2013-09-26 06:57:00,41.2,40.7,29.80,SE,138,0.0,0.0,98,0.00,,,0.01,Wunderground v.1.15,2013-09-26 10:57:00,
2013-09-26 07:02:00,41.3,40.8,29.80,SE,138,0.0,0.0,98,0.00,,,0.01,Wunderground v.1.15,2013-09-26 11:02:00,
2013-09-26 07:07:00,41.2,40.7,29.80,SE,138,0.0,0.0,98,0.00,,,0.01,Wunderground v.1.15,2013-09-26 11:07:00,
2013-09-26 07:17:00,41.2,40.7,29.80,SE,138,0.0,0.0,98,0.00,,,0.01,Wunderground v.1.15,2013-09-26 11:17:00,
2013-09-26 07:22:00,41.2,40.7,29.81,SE,138,0.0,0.0,98,0.00,,,0.01,Wunderground v.1.15,2013-09-26 11:22:00,
2013-09-26 07:32:00,41.2,40.7,29.81,SE,138,0.0,0.0,98,0.00,,,0.01,Wunderground v.1.15,2013-09-26 11:32:00,
2013-09-26 07:42:00,41.5,41.0,29.81,SE,138,0.0,0.0,98,0.00,,,0.01,Wunderground v.1.15,2013-09-26 11:42:00,
2013-09-26 07:47:00,41.7,41.2,29.81,SE,138,0.0,0.0,98,0.00,,,0.01,Wunderground v.1.15,2013-09-26 11:47:00,
2013-09-26 07:52:00,42.0,41.5,29.81,SE,138,0.0,0.0,98,0.00,,,0.01,Wunderground v.1.15,2013-09-26 11:52:00,
2013-09-26 08:02:00,42.7,42.2,29.81,SE,138,0.0,0.0,98,0.00,,,0.01,Wunderground v.1.15,2013-09-26 12:02:00,
2013-09-26 08:08:00,43.4,42.9,29.82,SE,138,0.0,0.0,98,0.00,,,0.01,Wunderground v.1.15,2013-09-26 12:08:00,
2013-09-26 08:17:00,45.0,44.5,29.82,SE,138,0.0,0.0,98,0.00,,,0.01,Wunderground v.1.15,2013-09-26 12:17:00,
2013-09-26 08:22:00,45.9,45.4,29.82,SE,138,0.0,0.0,98,0.00,,,0.01,Wunderground v.1.15,2013-09-26 12:22:00,
2013-09-26 08:32:00,47.8,47.5,29.82,SE,138,0.0,0.0,99,0.00,,,0.01,Wunderground v.1.15,2013-09-26 12:32:00,
2013-09-26 08:37:00,48.6,48.3,29.82,SE,138,0.0,0.0,99,0.00,,,0.01,Wunderground v.1.15,2013-09-26 12:37:00,
2013-09-26 08:42:00,49.2,48.9,29.82,SE,138,0.0,0.0,99,0.00,,,0.01,Wunderground v.1.15,2013-09-26 12:42:00,
2013-09-26 08:52:00,50.6,50.3,29.83,SE,138,0.0,0.0,99,0.00,,,0.01,Wunderground v.1.15,2013-09-26 12:52:00,
2013-09-26 09:02:00,51.7,51.4,29.83,SE,138,0.0,0.0,99,0.00,,,0.01,Wunderground v.1.15,2013-09-26 13:02:00,
2013-09-26 09:08:00,52.1,51.8,29.83,SE,138,0.0,0.0,99,0.00,,,0.01,Wunderground v.1.15,2013-09-26 13:08:00,
2013-09-26 09:17:00,52.4,52.1,29.83,SE,138,0.0,0.0,99,0.00,,,0.01,Wunderground v.1.15,2013-09-26 13:17:00,
2013-09-26 09:22:00,52.6,52.3,29.83,SE,138,0.0,0.0,99,0.00,,,0.01,Wunderground v.1.15,2013-09-26 13:22:00,
2013-09-26 09:27:00,53.2,52.9,29.84,SE,138,0.0,2.0,99,0.00,,,0.01,Wunderground v.1.15,2013-09-26 13:27:00,
2013-09-26 09:37:00,54.7,54.4,29.84,SE,138,1.0,1.0,99,0.00,,,0.01,Wunderground v.1.15,2013-09-26 13:37:00,
2013-09-26 09:42:00,55.6,55.0,29.84,SE,138,0.0,1.0,98,0.00,,,0.01,Wunderground v.1.15,2013-09-26 13:42:00,
2013-09-26 09:52:00,56.9,54.0,29.84,SE,138,1.0,1.0,90,0.00,,,0.01,Wunderground v.1.15,2013-09-26 13:52:00,
2013-09-26 10:02:00,58.4,54.2,29.85,SE,138,0.0,1.0,86,0.00,,,0.01,Wunderground v.1.15,2013-09-26 14:02:00,
2013-09-26 10:07:00,59.4,54.6,29.85,SE,138,0.0,1.0,84,0.00,,,0.01,Wunderground v.1.15,2013-09-26 14:07:00,
2013-09-26 10:17:00,60.6,55.1,29.85,SE,138,1.0,1.0,82,0.00,,,0.01,Wunderground v.1.15,2013-09-26 14:17:00,
2013-09-26 10:22:00,61.3,56.1,29.84,SE,138,0.0,0.0,83,0.00,,,0.01,Wunderground v.1.15,2013-09-26 14:22:00,
2013-09-26 10:27:00,62.2,57.0,29.84,SE,138,0.0,1.0,83,0.00,,,0.01,Wunderground v.1.15,2013-09-26 14:27:00,
2013-09-26 10:32:00,62.6,56.3,29.84,SW,229,1.0,1.0,80,0.00,,,0.01,Wunderground v.1.15,2013-09-26 14:32:00,
2013-09-26 10:42:00,63.7,57.8,29.85,NE,45,1.0,3.0,81,0.00,,,0.01,Wunderground v.1.15,2013-09-26 14:42:00,
2013-09-26 10:52:00,64.5,58.5,29.85,East,81,2.0,3.0,81,0.00,,,0.01,Wunderground v.1.15,2013-09-26 14:52:00,
2013-09-26 10:57:00,65.0,58.3,29.85,NNE,25,1.0,3.0,79,0.00,,,0.01,Wunderground v.1.15,2013-09-26 14:57:00,
2013-09-26 11:02:00,65.4,59.1,29.85,ENE,69,2.0,4.0,80,0.00,,,0.01,Wunderground v.1.15,2013-09-26 15:02:00,
2013-09-26 11:07:00,65.9,58.8,29.85,NE,56,2.0,4.0,78,0.00,,,0.01,Wunderground v.1.15,2013-09-26 15:07:00,
2013-09-26 11:17:00,65.8,58.4,29.85,North,360,3.0,3.0,77,0.00,,,0.01,Wunderground v.1.15,2013-09-26 15:17:00,
2013-09-26 11:22:00,66.0,59.3,29.85,NNE,29,3.0,3.0,79,0.00,,,0.01,Wunderground v.1.15,2013-09-26 15:22:00,
2013-09-26 11:32:00,66.5,59.1,29.85,West,261,2.0,2.0,77,0.00,,,0.01,Wunderground v.1.15,2013-09-26 15:32:00,
2013-09-26 11:42:00,66.7,58.5,29.85,North,355,2.0,2.0,75,0.00,,,0.01,Wunderground v.1.15,2013-09-26 15:42:00,
2013-09-26 11:52:00,66.6,59.2,29.85,North,5,3.0,5.0,77,0.00,,,0.01,Wunderground v.1.15,2013-09-26 15:52:00,
2013-09-26 11:57:00,66.7,58.9,29.84,NNE,17,3.0,5.0,76,0.00,,,0.01,Wunderground v.1.15,2013-09-26 15:57:00,
2013-09-26 12:02:00,66.9,58.0,29.84,NNE,27,2.0,2.0,73,0.00,,,0.01,Wunderground v.1.15,2013-09-26 16:02:00,
2013-09-26 12:07:00,67.1,57.8,29.84,ENE,61,2.0,2.0,72,0.00,,,0.01,Wunderground v.1.15,2013-09-26 16:07:00,
2013-09-26 12:17:00,67.5,57.8,29.84,NNE,30,3.0,3.0,71,0.00,,,0.01,Wunderground v.1.15,2013-09-26 16:17:00,
2013-09-26 12:27:00,68.0,57.8,29.84,NE,49,2.0,4.0,70,0.00,,,0.01,Wunderground v.1.15,2013-09-26 16:27:00,
2013-09-26 12:32:00,68.1,58.3,29.84,ESE,106,2.0,2.0,71,0.00,,,0.01,Wunderground v.1.15,2013-09-26 16:32:00,
2013-09-26 12:42:00,68.8,58.6,29.84,NE,51,2.0,2.0,70,0.00,,,0.01,Wunderground v.1.15,2013-09-26 16:42:00,
2013-09-26 12:47:00,69.1,58.1,29.84,East,86,2.0,3.0,68,0.00,,,0.01,Wunderground v.1.15,2013-09-26 16:47:00,
2013-09-26 12:57:00,69.2,57.8,29.84,NE,53,2.0,3.0,67,0.00,,,0.01,Wunderground v.1.15,2013-09-26 16:57:00,
2013-09-26 13:02:00,69.5,58.1,29.84,East,83,2.0,2.0,67,0.00,,,0.01,Wunderground v.1.15,2013-09-26 17:02:00,
2013-09-26 13:07:00,69.7,57.4,29.84,NNE,13,2.0,2.0,65,0.00,,,0.01,Wunderground v.1.15,2013-09-26 17:07:00,
2013-09-26 13:17:00,69.5,56.8,29.84,East,97,3.0,3.0,64,0.00,,,0.01,Wunderground v.1.15,2013-09-26 17:17:00,
2013-09-26 13:27:00,69.9,56.3,29.84,East,94,3.0,5.0,62,0.00,,,0.01,Wunderground v.1.15,2013-09-26 17:27:00,
2013-09-26 13:32:00,70.1,56.5,29.84,ENE,61,2.0,2.0,62,0.00,,,0.01,Wunderground v.1.15,2013-09-26 17:32:00,
2013-09-26 13:42:00,70.6,56.9,29.84,NE,47,2.0,4.0,62,0.00,,,0.01,Wunderground v.1.15,2013-09-26 17:42:00,
2013-09-26 13:47:00,70.6,56.9,29.83,North,355,2.0,6.0,62,0.00,,,0.01,Wunderground v.1.15,2013-09-26 17:47:00,
2013-09-26 13:57:00,70.3,57.1,29.83,East,94,3.0,3.0,63,0.00,,,0.01,Wunderground v.1.15,2013-09-26 17:57:00,
2013-09-26 14:02:00,70.3,57.1,29.83,ENE,77,3.0,3.0,63,0.00,,,0.01,Wunderground v.1.15,2013-09-26 18:02:00,
2013-09-26 14:07:00,70.5,56.9,29.83,ENE,60,3.0,3.0,62,0.00,,,0.01,Wunderground v.1.15,2013-09-26 18:07:00,
2013-09-26 14:22:00,70.5,56.4,29.83,East,85,3.0,3.0,61,0.00,,,0.01,Wunderground v.1.15,2013-09-26 18:22:00,
2013-09-26 14:32:00,70.5,56.4,29.83,NW,306,3.0,3.0,61,0.00,,,0.01,Wunderground v.1.15,2013-09-26 18:32:00,
2013-09-26 14:37:00,70.4,57.2,29.83,NE,53,3.0,4.0,63,0.00,,,0.01,Wunderground v.1.15,2013-09-26 18:37:00,
2013-09-26 14:47:00,70.6,58.3,29.83,NE,34,3.0,7.0,65,0.00,,,0.01,Wunderground v.1.15,2013-09-26 18:47:00,
2013-09-26 14:52:00,70.6,56.5,29.83,NNE,24,3.0,3.0,61,0.00,,,0.01,Wunderground v.1.15,2013-09-26 18:52:00,
2013-09-26 15:02:00,70.3,56.7,29.83,ENE,76,3.0,3.0,62,0.00,,,0.01,Wunderground v.1.15,2013-09-26 19:02:00,
2013-09-26 15:12:00,70.6,57.4,29.83,East,89,2.0,3.0,63,0.00,,,0.01,Wunderground v.1.15,2013-09-26 19:12:00,
2013-09-26 15:22:00,70.6,57.4,29.83,NE,38,3.0,4.0,63,0.00,,,0.01,Wunderground v.1.15,2013-09-26 19:22:00,
2013-09-26 15:27:00,70.7,57.5,29.83,NE,40,2.0,4.0,63,0.00,,,0.01,Wunderground v.1.15,2013-09-26 19:27:00,
2013-09-26 15:32:00,70.9,56.8,29.83,ENE,69,2.0,2.0,61,0.00,,,0.01,Wunderground v.1.15,2013-09-26 19:32:00,
2013-09-26 15:42:00,70.4,57.2,29.83,NE,48,3.0,3.0,63,0.00,,,0.01,Wunderground v.1.15,2013-09-26 19:42:00,
2013-09-26 15:52:00,70.4,57.6,29.83,NW,319,2.0,2.0,64,0.00,,,0.01,Wunderground v.1.15,2013-09-26 19:52:00,
2013-09-26 15:57:00,70.6,58.3,29.83,NE,52,1.0,3.0,65,0.00,,,0.01,Wunderground v.1.15,2013-09-26 19:57:00,
2013-09-26 16:07:00,70.4,57.2,29.83,NNE,23,2.0,2.0,63,0.00,,,0.01,Wunderground v.1.15,2013-09-26 20:07:00,
2013-09-26 16:17:00,70.1,57.8,29.83,ENE,72,3.0,3.0,65,0.00,,,0.01,Wunderground v.1.15,2013-09-26 20:17:00,
2013-09-26 16:27:00,70.3,58.0,29.83,East,92,2.0,4.0,65,0.00,,,0.01,Wunderground v.1.15,2013-09-26 20:27:00,
2013-09-26 16:32:00,70.3,58.0,29.83,NE,56,2.0,2.0,65,0.00,,,0.01,Wunderground v.1.15,2013-09-26 20:32:00,
2013-09-26 16:42:00,70.4,58.5,29.84,ESE,106,2.0,2.0,66,0.00,,,0.01,Wunderground v.1.15,2013-09-26 20:42:00,
2013-09-26 16:52:00,70.2,57.9,29.83,NE,42,2.0,2.0,65,0.00,,,0.01,Wunderground v.1.15,2013-09-26 20:52:00,
2013-09-26 16:57:00,69.8,56.6,29.84,NE,42,3.0,3.0,63,0.00,,,0.01,Wunderground v.1.15,2013-09-26 20:57:00,
2013-09-26 17:02:00,69.4,56.3,29.84,East,93,2.0,2.0,63,0.00,,,0.01,Wunderground v.1.15,2013-09-26 21:02:00,
2013-09-26 17:07:00,69.1,56.8,29.84,East,92,1.0,2.0,65,0.00,,,0.01,Wunderground v.1.15,2013-09-26 21:07:00,
2013-09-26 17:17:00,68.5,56.7,29.84,ENE,72,1.0,2.0,66,0.00,,,0.01,Wunderground v.1.15,2013-09-26 21:17:00,
2013-09-26 17:22:00,68.2,56.4,29.84,NNE,15,1.0,1.0,66,0.00,,,0.01,Wunderground v.1.15,2013-09-26 21:22:00,
2013-09-26 17:32:00,68.3,57.7,29.84,East,98,1.0,1.0,69,0.00,,,0.01,Wunderground v.1.15,2013-09-26 21:32:00,
2013-09-26 17:42:00,68.5,56.3,29.84,ESE,106,1.0,2.0,65,0.00,,,0.01,Wunderground v.1.15,2013-09-26 21:42:00,
2013-09-26 17:47:00,68.7,56.9,29.84,ESE,106,1.0,2.0,66,0.00,,,0.01,Wunderground v.1.15,2013-09-26 21:47:00,
2013-09-26 17:52:00,68.9,57.1,29.84,ESE,106,0.0,0.0,66,0.00,,,0.01,Wunderground v.1.15,2013-09-26 21:52:00,
2013-09-26 18:02:00,69.4,58.4,29.85,ESE,106,0.0,0.0,68,0.00,,,0.01,Wunderground v.1.15,2013-09-26 22:02:00,
2013-09-26 18:07:00,69.7,57.8,29.84,ESE,106,0.0,0.0,66,0.00,,,0.01,Wunderground v.1.15,2013-09-26 22:07:00,
2013-09-26 18:17:00,69.4,58.0,29.85,ESE,106,0.0,0.0,67,0.00,,,0.01,Wunderground v.1.15,2013-09-26 22:17:00,
2013-09-26 18:22:00,69.0,58.0,29.85,ESE,106,0.0,0.0,68,0.00,,,0.01,Wunderground v.1.15,2013-09-26 22:22:00,
2013-09-26 18:32:00,68.1,58.7,29.85,ESE,106,0.0,0.0,72,0.00,,,0.01,Wunderground v.1.15,2013-09-26 22:32:00,
2013-09-26 18:42:00,66.4,58.6,29.85,ESE,106,0.0,0.0,76,0.00,,,0.01,Wunderground v.1.15,2013-09-26 22:42:00,
2013-09-26 18:47:00,65.4,58.4,29.85,ESE,106,0.0,0.0,78,0.00,,,0.01,Wunderground v.1.15,2013-09-26 22:47:00,
2013-09-26 18:52:00,64.6,57.9,29.85,ESE,106,0.0,0.0,79,0.00,,,0.01,Wunderground v.1.15,2013-09-26 22:52:00,
2013-09-26 19:02:00,63.0,57.1,29.85,ESE,106,0.0,0.0,81,0.00,,,0.01,Wunderground v.1.15,2013-09-26 23:02:00,
2013-09-26 19:07:00,62.2,56.6,29.85,ESE,106,0.0,0.0,82,0.00,,,0.01,Wunderground v.1.15,2013-09-26 23:07:00,
2013-09-26 19:17:00,60.8,55.9,29.85,ESE,106,0.0,0.0,84,0.00,,,0.01,Wunderground v.1.15,2013-09-26 23:17:00,
2013-09-26 19:22:00,60.1,55.6,29.85,ESE,106,0.0,0.0,85,0.00,,,0.01,Wunderground v.1.15,2013-09-26 23:22:00,
2013-09-26 19:32:00,58.9,55.0,29.86,ESE,106,0.0,0.0,87,0.00,,,0.01,Wunderground v.1.15,2013-09-26 23:32:00,
2013-09-26 19:42:00,57.8,54.3,29.86,ESE,106,0.0,0.0,88,0.00,,,0.01,Wunderground v.1.15,2013-09-26 23:42:00,
2013-09-26 19:47:00,57.3,53.8,29.86,ESE,106,0.0,0.0,88,0.00,,,0.01,Wunderground v.1.15,2013-09-26 23:47:00,
2013-09-26 19:57:00,56.4,53.2,29.86,ESE,106,0.0,0.0,89,0.00,,,0.01,Wunderground v.1.15,2013-09-26 23:57:00,
2013-09-26 20:02:00,56.0,53.1,29.86,ESE,106,0.0,0.0,90,0.00,,,0.01,Wunderground v.1.15,2013-09-27 00:02:00,
2013-09-26 20:17:00,54.9,52.3,29.86,ESE,106,0.0,0.0,91,0.00,,,0.01,Wunderground v.1.15,2013-09-27 00:17:00,
2013-09-26 20:22:00,54.6,52.0,29.86,ESE,106,0.0,0.0,91,0.00,,,0.01,Wunderground v.1.15,2013-09-27 00:22:00,
2013-09-26 20:32:00,53.9,51.6,29.87,ESE,106,0.0,0.0,92,0.00,,,0.01,Wunderground v.1.15,2013-09-27 00:32:00,
2013-09-26 20:37:00,53.7,51.4,29.87,ESE,106,0.0,0.0,92,0.00,,,0.01,Wunderground v.1.15,2013-09-27 00:37:00,
2013-09-26 20:47:00,53.2,51.2,29.87,ESE,106,0.0,0.0,93,0.00,,,0.01,Wunderground v.1.15,2013-09-27 00:47:00,
2013-09-26 20:52:00,53.1,51.1,29.87,ESE,106,0.0,0.0,93,0.00,,,0.01,Wunderground v.1.15,2013-09-27 00:52:00,
2013-09-26 21:02:00,52.6,50.6,29.87,ESE,106,0.0,0.0,93,0.00,,,0.01,Wunderground v.1.15,2013-09-27 01:02:00,
2013-09-26 21:07:00,52.3,50.3,29.87,ESE,106,0.0,0.0,93,0.00,,,0.01,Wunderground v.1.15,2013-09-27 01:07:00,
2013-09-26 21:17:00,51.9,49.9,29.87,ESE,106,0.0,0.0,93,0.00,,,0.01,Wunderground v.1.15,2013-09-27 01:17:00,
2013-09-26 21:22:00,51.6,49.9,29.87,ESE,106,0.0,0.0,94,0.00,,,0.01,Wunderground v.1.15,2013-09-27 01:22:00,
2013-09-26 21:32:00,51.2,49.5,29.88,ESE,106,0.0,0.0,94,0.00,,,0.01,Wunderground v.1.15,2013-09-27 01:32:00,
2013-09-26 21:37:00,51.0,49.3,29.88,ESE,106,0.0,0.0,94,0.00,,,0.01,Wunderground v.1.15,2013-09-27 01:37:00,
2013-09-26 21:42:00,50.9,49.2,29.88,ESE,106,0.0,0.0,94,0.00,,,0.01,Wunderground v.1.15,2013-09-27 01:42:00,
2013-09-26 21:52:00,50.5,48.8,29.88,ESE,106,0.0,0.0,94,0.00,,,0.01,Wunderground v.1.15,2013-09-27 01:52:00,
2013-09-26 22:02:00,50.3,48.9,29.89,ESE,106,0.0,0.0,95,0.00,,,0.01,Wunderground v.1.15,2013-09-27 02:02:00,
2013-09-26 22:07:00,50.3,48.9,29.89,ESE,106,0.0,0.0,95,0.00,,,0.01,Wunderground v.1.15,2013-09-27 02:07:00,
2013-09-26 22:17:00,50.5,49.4,29.89,ESE,106,0.0,0.0,96,0.00,,,0.01,Wunderground v.1.15,2013-09-27 02:17:00,
2013-09-26 22:22:00,50.5,49.4,29.89,ESE,106,0.0,0.0,96,0.00,,,0.01,Wunderground v.1.15,2013-09-27 02:22:00,
2013-09-26 22:27:00,50.5,49.4,29.89,ESE,106,0.0,0.0,96,0.00,,,0.01,Wunderground v.1.15,2013-09-27 02:27:00,
2013-09-26 22:37:00,50.4,49.3,29.89,ESE,106,0.0,0.0,96,0.00,,,0.01,Wunderground v.1.15,2013-09-27 02:37:00,
2013-09-26 22:42:00,50.3,49.2,29.89,ESE,106,0.0,0.0,96,0.00,,,0.01,Wunderground v.1.15,2013-09-27 02:42:00,
2013-09-26 22:52:00,49.8,48.7,29.89,ESE,106,0.0,0.0,96,0.00,,,0.01,Wunderground v.1.15,2013-09-27 02:52:00,
2013-09-26 23:02:00,49.4,48.0,29.90,ESE,106,0.0,0.0,95,0.00,,,0.01,Wunderground v.1.15,2013-09-27 03:02:00,
2013-09-26 23:07:00,49.2,48.1,29.90,ESE,106,0.0,0.0,96,0.00,,,0.01,Wunderground v.1.15,2013-09-27 03:07:00,
2013-09-26 23:17:00,49.1,48.0,29.90,ESE,106,0.0,0.0,96,0.00,,,0.01,Wunderground v.1.15,2013-09-27 03:17:00,
2013-09-26 23:22:00,49.2,48.1,29.90,ESE,106,0.0,0.0,96,0.00,,,0.01,Wunderground v.1.15,2013-09-27 03:22:00,
2013-09-26 23:27:00,49.4,48.6,29.90,ESE,106,0.0,0.0,97,0.00,,,0.01,Wunderground v.1.15,2013-09-27 03:27:00,
2013-09-26 23:37:00,50.2,49.4,29.90,ESE,106,0.0,1.0,97,0.00,,,0.01,Wunderground v.1.15,2013-09-27 03:37:00,
2013-09-26 23:42:00,50.4,49.6,29.90,ESE,106,0.0,0.0,97,0.00,,,0.01,Wunderground v.1.15,2013-09-27 03:42:00,
2013-09-26 23:52:00,50.8,50.0,29.90,ESE,106,0.0,0.0,97,0.00,,,0.01,Wunderground v.1.15,2013-09-27 03:52:00,
2013-09-26 23:57:00,51.0,50.2,29.90,ESE,106,0.0,0.0,97,0.00,,,0.01,Wunderground v.1.15,2013-09-27 03:57:00,